Time;durP1;ratioP1;P1;durP2;ratioP2;P2;SDS_P1;SDS_P2;PMS_P1;PMS_P2;Temp;Humidity;BMP_temperature;BMP_pressure;BME280_temperature;BME280_humidity;BME280_pressure;Samples;Min_cycle;Max_cycle;Signal;HPM_P1;HPM_P2
2023/11/26 15:47:24;;;;;;;5.45;1.50;;;;;;;21.91;27.78;101293.41;4269456;27;20157;-57
2023/11/26 15:49:26;;;;;;;3.60;1.30;;;;;;;21.97;27.47;101299.19;4257855;27;20050;-58
2023/11/26 15:51:28;;;;;;;;;;;;;;;22.04;27.29;101302.25;4255435;27;20500;-57
2023/11/26 15:53:29;;;;;;;4.97;2.20;;;;;;;22.08;27.61;101293.03;4252859;27;19931;-57
2023/11/26 15:55:31;;;;;;;5.47;1.92;;;;;;;22.17;27.50;101292.31;4251564;27;20070;-57
2023/11/26 15:57:33;;;;;;;5.10;2.10;;;;;;;22.21;27.60;101289.41;4238406;28;20051;-58
2023/11/26 15:59:34;;;;;;;4.53;1.85;;;;;;;22.28;27.58;101296.84;4252678;27;20055;-58
2023/11/26 16:01:36;;;;;;;5.05;1.55;;;;;;;22.34;27.12;101295.53;4259126;27;20042;-57
2023/11/26 16:03:38;;;;;;;3.70;1.50;;;;;;;22.36;27.44;101298.97;4264135;27;20418;-56
2023/11/26 16:05:39;;;;;;;;;;;;;;;22.39;26.84;101293.38;4254133;27;20050;-56
2023/11/26 16:07:41;;;;;;;3.83;1.43;;;;;;;22.37;26.99;101297.13;4261140;27;19923;-56
2023/11/26 16:09:47;;;;;;;7.35;1.90;;;;;;;22.34;28.74;101290.19;4242980;27;20051;-56
2023/11/26 16:11:49;;;;;;;8.70;2.08;;;;;;;22.31;28.18;101293.97;4253814;27;20624;-57
2023/11/26 16:13:51;;;;;;;5.10;1.60;;;;;;;22.32;28.34;101286.75;4260432;27;20761;-58
2023/11/26 16:15:52;;;;;;;5.03;1.60;;;;;;;22.36;29.40;101282.88;4259245;27;20046;-58
2023/11/26 16:17:55;;;;;;;;;;;;;;;22.43;28.97;101281.47;4261502;27;20066;-57
2023/11/26 16:19:57;;;;;;;14.32;1.85;;;;;;;22.42;28.91;101284.25;4238363;28;19988;-58
2023/11/26 16:21:58;;;;;;;5.20;1.90;;;;;;;22.53;27.35;101283.44;4253303;27;20050;-57
2023/11/26 16:24:00;;;;;;;5.13;1.67;;;;;;;22.52;28.77;101281.72;4262785;27;20048;-57
2023/11/26 16:26:04;;;;;;;6.95;1.80;;;;;;;22.57;29.48;101284.91;4256987;27;20046;-59
2023/11/26 16:28:07;;;;;;;4.53;1.60;;;;;;;22.64;28.02;101286.16;4259939;27;20117;-58
2023/11/26 16:30:10;;;;;;;7.40;1.83;;;;;;;22.58;28.86;101292.00;4258969;27;20054;-58
2023/11/26 16:32:12;;;;;;;4.05;1.58;;;;;;;22.66;28.50;101281.50;4254789;27;20122;-57
2023/11/26 16:34:14;;;;;;;;;;;;;;;22.77;27.41;101284.22;4263713;27;20384;-55
2023/11/26 16:36:17;;;;;;;4.38;1.42;;;;;;;22.79;26.96;101278.72;4250829;27;19950;-57
2023/11/26 16:38:19;;;;;;;5.38;1.85;;;;;;;22.76;27.76;101276.28;4251352;27;20047;-57
2023/11/26 16:40:21;;;;;;;3.53;1.40;;;;;;;22.84;26.49;101270.31;4251377;27;20130;-56
2023/11/26 16:42:23;;;;;;;4.88;1.80;;;;;;;22.73;26.49;101265.81;4249641;27;20094;-54
2023/11/26 16:44:27;;;;;;;;;;;;;;;22.67;27.02;101267.13;4256014;27;20073;-55
2023/11/26 16:46:28;;;;;;;4.63;1.67;;;;;;;22.59;27.44;101272.22;4255245;27;19930;-57
2023/11/26 16:48:31;;;;;;;5.60;1.50;;;;;;;22.59;27.52;101274.91;4267954;27;20419;-58
2023/11/26 16:50:33;;;;;;;5.07;1.58;;;;;;;22.58;27.33;101276.75;4261390;27;20050;-58
2023/11/26 16:52:35;;;;;;;;;;;;;;;22.56;26.70;101273.31;4258158;27;20078;-57
2023/11/26 16:54:36;;;;;;;4.87;1.60;;;;;;;22.56;26.95;101269.81;4254109;27;19930;-56
2023/11/26 16:56:42;;;;;;;5.20;1.40;;;;;;;22.56;26.99;101267.97;4254970;27;20276;-57
2023/11/26 16:58:44;;;;;;;3.95;1.58;;;;;;;22.56;27.07;101265.28;4250318;27;20047;-58
2023/11/26 17:00:45;;;;;;;;;;;;;;;22.53;26.88;101272.72;4247153;27;20089;-59
2023/11/26 17:02:47;;;;;;;3.33;1.60;;;;;;;22.42;27.12;101274.41;4249735;27;19970;-59
2023/11/26 17:04:49;;;;;;;4.40;1.60;;;;;;;22.40;27.09;101273.66;4245047;27;20047;-59
2023/11/26 17:06:51;;;;;;;3.83;1.50;;;;;;;22.38;27.34;101270.25;4245685;27;20047;-58
2023/11/26 17:08:52;;;;;;;;;;;;;;;22.42;27.54;101271.72;4244457;27;20110;-58
2023/11/26 17:10:56;;;;;;;5.10;1.60;;;;;;;22.46;27.54;101280.38;4247651;27;19969;-58
2023/11/26 17:12:58;;;;;;;4.97;1.67;;;;;;;22.53;26.95;101278.06;4243182;27;20313;-58
2023/11/26 17:15:00;;;;;;;4.75;1.63;;;;;;;22.49;27.47;101272.97;4231907;28;20488;-59
2023/11/26 17:17:02;;;;;;;5.03;1.67;;;;;;;22.44;27.21;101269.78;4237285;27;20492;-58
2023/11/26 17:19:05;;;;;;;4.38;1.55;;;;;;;22.41;27.20;101264.66;4243876;27;20151;-57
2023/11/26 17:21:08;;;;;;;3.63;1.42;;;;;;;22.39;27.21;101268.44;4230240;28;20044;-57
2023/11/26 17:23:10;;;;;;;4.30;1.50;;;;;;;22.39;27.38;101265.75;4246835;27;20070;-58
2023/11/26 17:25:12;;;;;;;3.42;1.40;;;;;;;22.38;27.44;101269.38;4231791;28;20044;-57
2023/11/26 17:27:14;;;;;;;4.25;1.38;;;;;;;22.39;27.15;101265.75;4235429;27;20039;-58
2023/11/26 17:29:15;;;;;;;6.00;1.83;;;;;;;22.41;27.13;101264.66;4240431;27;20123;-57
2023/11/26 17:31:21;;;;;;;4.15;1.60;;;;;;;22.46;27.03;101273.19;4231809;28;20040;-58
2023/11/26 17:33:24;;;;;;;4.60;1.52;;;;;;;22.47;27.08;101266.84;4243902;27;20077;-59
2023/11/26 17:35:26;;;;;;;3.78;1.40;;;;;;;22.48;27.10;101257.84;4231594;28;20374;-58
2023/11/26 17:37:28;;;;;;;4.50;1.52;;;;;;;22.48;27.15;101265.06;4234762;27;20083;-57
2023/11/26 17:39:30;;;;;;;4.43;1.70;;;;;;;22.46;26.86;101258.94;4240976;27;20074;-58
2023/11/26 17:41:32;;;;;;;6.07;1.85;;;;;;;22.45;26.99;101259.91;4231586;28;20070;-58
2023/11/26 17:43:34;;;;;;;4.60;1.80;;;;;;;22.42;27.00;101255.66;4242111;27;20039;-58
2023/11/26 17:45:36;;;;;;;4.65;1.40;;;;;;;22.41;26.84;101250.41;4232547;27;20054;-58
2023/11/26 17:47:40;;;;;;;;;;;;;;;22.42;27.17;101252.97;4243228;27;20047;-58
2023/11/26 17:49:45;;;;;;;5.60;1.63;;;;;;;22.43;27.10;101243.09;4242327;27;19920;-59
2023/11/26 17:51:47;;;;;;;3.95;1.40;;;;;;;22.46;27.00;101249.06;4231537;28;20123;-58
2023/11/26 17:53:49;;;;;;;3.75;1.48;;;;;;;22.47;27.28;101245.41;4241537;27;20043;-59
2023/11/26 17:55:51;;;;;;;4.05;1.40;;;;;;;22.46;26.86;101242.88;4234193;27;20460;-58
2023/11/26 17:57:53;;;;;;;;;;;;;;;22.42;27.02;101239.56;4233029;27;20043;-59
2023/11/26 17:59:54;;;;;;;4.35;1.48;;;;;;;22.38;27.21;101240.75;4240898;27;20023;-58
2023/11/26 18:01:56;;;;;;;4.57;1.73;;;;;;;22.35;27.45;101235.63;4248505;27;20503;-58
2023/11/26 18:03:58;;;;;;;4.90;1.60;;;;;;;22.31;27.20;101236.84;4239303;27;20047;-59
2023/11/26 18:05:59;;;;;;;4.22;1.80;;;;;;;22.30;27.08;101244.00;4244135;27;20046;-57
2023/11/26 18:08:01;;;;;;;5.13;2.00;;;;;;;22.31;27.04;101239.53;4246552;27;20087;-58
2023/11/26 18:10:03;;;;;;;4.55;1.55;;;;;;;22.33;27.38;101246.47;4228823;28;20052;-58
2023/11/26 18:12:05;;;;;;;4.68;1.85;;;;;;;22.34;27.02;101237.44;4248066;27;20393;-59
2023/11/26 18:14:07;;;;;;;5.28;1.90;;;;;;;22.36;27.10;101237.34;4240545;27;20069;-59
2023/11/26 18:16:09;;;;;;;5.15;2.00;;;;;;;22.34;27.32;101234.75;4242274;27;20575;-58
2023/11/26 18:18:11;;;;;;;5.22;2.13;;;;;;;22.32;27.14;101231.34;4246533;27;20055;-59
2023/11/26 18:20:17;;;;;;;;;;;;;;;22.30;27.24;101229.78;4218585;28;20048;-59
2023/11/26 18:22:18;;;;;;;5.25;2.25;;;;;;;22.27;27.33;101227.31;4247995;27;19919;-58
2023/11/26 18:24:20;;;;;;;6.35;2.25;;;;;;;22.26;27.31;101221.13;4241678;27;20043;-58
2023/11/26 18:26:22;;;;;;;5.43;2.33;;;;;;;22.25;27.47;101214.03;4241106;27;20507;-58
2023/11/26 18:28:24;;;;;;;5.35;2.30;;;;;;;22.26;27.48;101206.84;4247433;27;20479;-59
2023/11/26 18:30:25;;;;;;;5.45;2.42;;;;;;;22.28;27.53;101204.91;4235475;27;20043;-58
2023/11/26 18:32:27;;;;;;;;;;;;;;;22.28;27.20;101208.44;4248547;27;20043;-57
2023/11/26 18:34:28;;;;;;;5.32;2.53;;;;;;;22.29;27.08;101210.16;4243439;27;20066;-57
2023/11/26 18:36:30;;;;;;;4.75;1.88;;;;;;;22.29;27.10;101201.25;4239168;27;20032;-58
2023/11/26 18:38:32;;;;;;;;;;;;;;;22.31;27.30;101205.53;4248349;27;20104;-58
2023/11/26 18:40:34;;;;;;;5.18;2.70;;;;;;;22.28;27.00;101204.91;4235643;27;19927;-55
2023/11/26 18:42:35;;;;;;;4.47;2.20;;;;;;;22.28;27.33;101196.88;4246665;27;20069;-58
2023/11/26 18:44:37;;;;;;;5.30;2.47;;;;;;;22.25;27.18;101192.63;4244960;27;20117;-58
2023/11/26 18:46:39;;;;;;;5.30;2.40;;;;;;;22.23;27.44;101199.91;4237714;27;20059;-57
2023/11/26 18:48:41;;;;;;;;;;;;;;;22.21;27.36;101195.63;4229782;28;20051;-57
2023/11/26 18:50:43;;;;;;;6.38;2.35;;;;;;;22.18;27.33;101192.22;4236912;27;20351;-58
2023/11/26 18:52:45;;;;;;;6.00;2.53;;;;;;;22.21;27.14;101190.28;4245253;27;20088;-58
2023/11/26 18:54:47;;;;;;;5.53;2.53;;;;;;;22.25;26.96;101194.41;4245709;27;20035;-59
2023/11/26 18:56:50;;;;;;;;;;;;;;;22.26;27.13;101193.44;4235958;27;20162;-59
2023/11/26 18:58:51;;;;;;;5.50;2.35;;;;;;;22.25;27.40;101178.34;4247431;27;19972;-59
2023/11/26 19:00:53;;;;;;;5.93;2.30;;;;;;;22.29;27.05;101183.34;4238372;27;20048;-62
2023/11/26 19:02:54;;;;;;;5.57;2.55;;;;;;;22.27;27.03;101181.75;4243487;27;20043;-59
2023/11/26 19:04:56;;;;;;;5.20;2.50;;;;;;;22.26;27.37;101172.88;4245774;27;20050;-58
2023/11/26 19:06:58;;;;;;;4.95;2.47;;;;;;;22.24;27.30;101173.97;4235898;27;20043;-58
2023/11/26 19:09:02;;;;;;;;;;;;;;;22.22;27.43;101175.91;4247851;27;20051;-58
2023/11/26 19:11:04;;;;;;;4.90;2.28;;;;;;;22.16;27.14;101172.75;4239196;27;20296;-57
2023/11/26 19:13:08;;;;;;;6.07;2.53;;;;;;;22.18;27.29;101173.47;4242374;27;20082;-59
2023/11/26 19:15:10;;;;;;;5.72;2.70;;;;;;;22.21;27.25;101171.53;4245461;27;20096;-59
2023/11/26 19:17:11;;;;;;;7.25;2.78;;;;;;;22.25;26.98;101167.63;4235660;27;20090;-59
2023/11/26 19:19:13;;;;;;;;;;;;;;;22.27;27.19;101163.00;4247433;27;20043;-59
2023/11/26 19:21:21;;;;;;;5.88;2.50;;;;;;;22.28;27.02;101151.31;4240392;27;19927;-59
2023/11/26 19:23:23;;;;;;;4.97;2.47;;;;;;;22.26;27.29;101148.78;4241369;27;20074;-58
2023/11/26 19:25:29;;;;;;;6.68;2.78;;;;;;;22.26;27.07;101138.06;4245118;27;20106;-59
2023/11/26 19:27:31;;;;;;;5.25;2.70;;;;;;;22.27;27.15;101152.28;4235823;27;20471;-59
2023/11/26 19:29:34;;;;;;;5.97;2.70;;;;;;;22.24;27.18;101142.66;4246911;27;20047;-60
2023/11/26 19:31:36;;;;;;;6.07;2.60;;;;;;;22.22;27.19;101138.41;4240647;27;20062;-59
2023/11/26 19:33:38;;;;;;;6.18;2.58;;;;;;;22.21;27.04;101142.06;4240452;27;20067;-57
2023/11/26 19:35:40;;;;;;;5.15;2.45;;;;;;;22.20;27.35;101135.84;4228036;28;20121;-58
2023/11/26 19:37:42;;;;;;;6.43;2.67;;;;;;;22.23;27.20;101132.09;4234623;27;20039;-57
2023/11/26 19:39:43;;;;;;;6.07;2.88;;;;;;;22.24;27.46;101137.31;4246859;27;20118;-58
2023/11/26 19:41:45;;;;;;;;;;;;;;;22.26;27.24;101135.38;4242215;27;20046;-57
2023/11/26 19:43:47;;;;;;;6.00;2.77;;;;;;;22.23;27.36;101130.25;4238650;28;19958;-57
2023/11/26 19:45:49;;;;;;;5.53;3.03;;;;;;;22.24;27.25;101126.59;4246508;28;20304;-58
2023/11/26 19:47:54;;;;;;;6.40;3.00;;;;;;;22.24;27.32;101131.94;4233990;28;20044;-58
2023/11/26 19:49:56;;;;;;;6.00;2.65;;;;;;;22.23;27.35;101134.75;4229856;28;20071;-58
2023/11/26 19:51:57;;;;;;;5.15;2.70;;;;;;;22.19;27.23;101131.47;4232982;28;20046;-58
2023/11/26 19:53:59;;;;;;;5.70;2.67;;;;;;;22.17;27.48;101120.84;4239001;28;20044;-58
2023/11/26 19:56:01;;;;;;;6.70;2.88;;;;;;;22.16;27.14;101120.97;4229375;28;20055;-58
2023/11/26 19:58:02;;;;;;;;;;;;;;;22.16;27.18;101120.97;4241111;28;20108;-57
2023/11/26 20:00:07;;;;;;;5.43;2.60;;;;;;;22.16;27.42;101116.50;4231231;28;19931;-57
2023/11/26 20:02:09;;;;;;;5.45;2.38;;;;;;;22.22;27.19;101122.34;4231856;28;20059;-58
2023/11/26 20:04:10;;;;;;;5.90;2.45;;;;;;;22.21;26.99;101112.59;4240172;28;20039;-58
2023/11/26 20:06:12;;;;;;;5.15;2.42;;;;;;;22.22;27.29;101114.31;4229771;28;20118;-57
2023/11/26 20:08:14;;;;;;;;;;;;;;;22.25;27.31;101122.94;4239480;28;20142;-56
2023/11/26 20:10:17;;;;;;;5.80;2.55;;;;;;;22.23;27.12;101124.03;4232308;28;19951;-57
2023/11/26 20:12:21;;;;;;;5.63;2.60;;;;;;;22.23;27.02;101124.88;4231056;28;20036;-56
2023/11/26 20:14:27;;;;;;;4.90;2.40;;;;;;;22.20;27.02;101117.09;4235595;28;20043;-57
2023/11/26 20:16:28;;;;;;;6.60;2.75;;;;;;;22.21;27.39;101115.25;4246691;28;20243;-58
2023/11/26 20:18:32;;;;;;;5.50;2.80;;;;;;;22.20;27.00;101119.78;4236974;28;20409;-57
2023/11/26 20:20:35;;;;;;;5.90;2.83;;;;;;;22.22;27.50;101117.81;4243698;28;20047;-58
2023/11/26 20:22:37;;;;;;;5.78;2.53;;;;;;;22.25;27.40;101122.06;4228058;28;20116;-58
2023/11/26 20:24:39;;;;;;;4.93;2.40;;;;;;;22.25;27.30;101112.22;4234516;28;20514;-58
2023/11/26 20:26:41;;;;;;;5.38;2.55;;;;;;;22.28;27.39;101121.84;4246466;28;20103;-57
2023/11/26 20:28:42;;;;;;;5.65;2.58;;;;;;;22.25;27.09;101117.59;4238428;28;20079;-57
2023/11/26 20:30:44;;;;;;;5.07;2.25;;;;;;;22.25;27.54;101111.34;4241679;28;20487;-58
2023/11/26 20:32:51;;;;;;;4.72;2.30;;;;;;;22.24;26.88;101115.03;4245977;27;20047;-58
2023/11/26 20:34:53;;;;;;;;;;;;;;;22.23;27.43;101118.69;4238612;27;20051;-57
2023/11/26 20:36:55;;;;;;;5.05;2.10;;;;;;;22.18;27.14;101108.31;4231214;28;19920;-58
2023/11/26 20:38:58;;;;;;;5.32;2.42;;;;;;;22.15;27.31;101105.88;4242161;27;20401;-57
2023/11/26 20:41:00;;;;;;;4.90;2.10;;;;;;;22.18;26.87;101108.31;4244321;27;20471;-57
2023/11/26 20:43:02;;;;;;;5.50;2.22;;;;;;;22.18;27.33;101089.56;4248038;27;20050;-56
2023/11/26 20:45:05;;;;;;;5.10;2.38;;;;;;;22.20;27.31;101098.34;4237769;27;20043;-57
2023/11/26 20:47:06;;;;;;;5.57;2.30;;;;;;;22.21;27.26;101083.97;4249207;27;20079;-57
2023/11/26 20:49:14;;;;;;;6.25;2.58;;;;;;;22.21;26.79;101086.63;4245339;27;20046;-56
2023/11/26 20:51:27;;;;;;;5.63;2.40;;;;;;;22.23;27.13;101083.84;4238545;27;20044;-58
2023/11/26 20:53:29;;;;;;;4.65;2.00;;;;;;;22.22;26.89;101071.44;4233361;27;20067;-57
2023/11/26 20:55:31;;;;;;;4.57;2.40;;;;;;;22.19;27.19;101069.84;4225657;28;20052;-57
2023/11/26 20:57:32;;;;;;;5.78;2.40;;;;;;;22.17;27.32;101061.06;4232367;28;20067;-58
2023/11/26 20:59:35;;;;;;;5.10;2.22;;;;;;;22.14;27.03;101066.66;4238691;27;20036;-57
2023/11/26 21:01:36;;;;;;;5.43;2.17;;;;;;;22.12;27.13;101058.75;4238472;27;20481;-57
2023/11/26 21:03:38;;;;;;;;;;;;;;;22.14;27.28;101066.66;4233736;27;20044;-57
2023/11/26 21:05:40;;;;;;;5.72;2.30;;;;;;;22.12;27.04;101063.28;4243801;27;20384;-58
2023/11/26 21:07:42;;;;;;;5.13;2.10;;;;;;;22.16;27.31;101062.03;4231983;28;20078;-57
2023/11/26 21:09:44;;;;;;;4.57;2.30;;;;;;;22.17;27.09;101056.56;4218850;28;20039;-57
2023/11/26 21:11:46;;;;;;;5.57;2.10;;;;;;;22.17;27.38;101061.91;4239834;27;20449;-57
2023/11/26 21:13:49;;;;;;;5.35;2.30;;;;;;;22.20;27.48;101059.97;4232140;28;20065;-57
2023/11/26 21:15:51;;;;;;;5.40;2.20;;;;;;;22.17;27.01;101059.25;4244604;27;20079;-57
2023/11/26 21:17:52;;;;;;;5.53;2.55;;;;;;;22.16;26.89;101054.88;4232087;28;20055;-58
2023/11/26 21:19:56;;;;;;;4.47;2.28;;;;;;;22.14;27.51;101056.81;4235356;27;20043;-57
2023/11/26 21:21:59;;;;;;;4.90;2.40;;;;;;;22.11;27.22;101050.84;4240480;27;20047;-57
2023/11/26 21:24:00;;;;;;;4.20;2.20;;;;;;;22.11;27.44;101051.69;4231835;28;20078;-57
2023/11/26 21:26:03;;;;;;;;;;;;;;;22.12;27.40;101050.72;4243720;27;20397;-57
2023/11/26 21:28:04;;;;;;;4.88;2.42;;;;;;;22.10;27.40;101041.09;4232694;27;19920;-57
2023/11/26 21:30:07;;;;;;;6.50;2.30;;;;;;;22.16;27.34;101043.28;4233784;27;20043;-56
2023/11/26 21:32:09;;;;;;;6.22;2.55;;;;;;;22.17;27.13;101040.47;4241841;27;20039;-57
2023/11/26 21:34:10;;;;;;;6.20;2.35;;;;;;;22.18;27.44;101042.19;4231774;28;20550;-57
2023/11/26 21:36:12;;;;;;;5.30;2.45;;;;;;;22.20;27.26;101050.13;4241378;27;20130;-57
2023/11/26 21:38:14;;;;;;;6.00;2.40;;;;;;;22.09;27.40;101039.41;4234112;27;20051;-57
2023/11/26 21:40:15;;;;;;;;;;;;;;;22.16;26.94;101054.88;4233216;27;20039;-60
2023/11/26 21:42:17;;;;;;;4.45;2.00;;;;;;;22.12;27.47;101050.72;4243082;27;19927;-57
2023/11/26 21:44:20;;;;;;;;;;;;;;;22.11;27.47;101045.50;4231772;28;20054;-57
2023/11/26 21:46:23;;;;;;;5.10;2.10;;;;;;;22.11;27.15;101046.34;4239590;27;19930;-57
2023/11/26 21:48:39;;;;;;;5.18;2.25;;;;;;;22.13;27.56;101040.88;4248386;27;20082;-57
2023/11/26 21:50:42;;;;;;;5.53;2.22;;;;;;;22.14;27.33;101039.88;4246474;27;20393;-57
2023/11/26 21:52:43;;;;;;;5.38;2.10;;;;;;;22.16;27.16;101027.22;4237189;27;20134;-57
2023/11/26 21:54:45;;;;;;;5.60;2.20;;;;;;;22.18;27.37;101019.91;4248396;27;20051;-57
2023/11/26 21:56:47;;;;;;;4.63;1.95;;;;;;;22.14;27.03;101013.97;4238798;27;20433;-57
2023/11/26 21:58:51;;;;;;;5.03;2.10;;;;;;;22.17;27.12;101016.38;4244935;27;20043;-57
2023/11/26 22:00:53;;;;;;;4.85;2.10;;;;;;;22.17;27.31;101015.53;4246779;27;20043;-57
2023/11/26 22:02:55;;;;;;;4.65;2.20;;;;;;;22.15;27.35;101004.94;4236692;27;20099;-57
2023/11/26 22:04:57;;;;;;;4.57;2.25;;;;;;;22.14;27.07;101005.91;4248235;27;20043;-58
2023/11/26 22:07:02;;;;;;;4.97;2.13;;;;;;;22.09;27.27;100992.06;4240093;27;20046;-57
2023/11/26 22:09:04;;;;;;;5.65;2.10;;;;;;;22.13;26.89;100995.34;4243944;27;20045;-58
2023/11/26 22:11:07;;;;;;;5.90;2.10;;;;;;;22.12;27.08;100998.97;4246407;27;20131;-57
2023/11/26 22:13:09;;;;;;;5.70;2.17;;;;;;;22.11;27.14;100991.91;4236608;27;20043;-59
2023/11/26 22:15:11;;;;;;;4.35;1.90;;;;;;;22.14;27.35;100991.66;4248110;27;20114;-59
2023/11/26 22:17:13;;;;;;;4.70;2.08;;;;;;;22.16;27.42;100985.22;4222655;28;20047;-59
2023/11/26 22:19:14;;;;;;;3.88;1.77;;;;;;;22.14;27.21;100973.78;4242216;27;20134;-59
2023/11/26 22:21:17;;;;;;;;;;;;;;;22.16;27.43;100973.66;4246684;27;20409;-58
2023/11/26 22:23:19;;;;;;;;;;;;;;;22.13;27.46;100968.56;4236663;27;20296;-58
2023/11/26 22:25:34;;;;;;;5.00;2.17;;;;;;;22.11;28.07;100974.00;4247715;27;19938;-58
2023/11/26 22:27:35;;;;;;;5.00;1.90;;;;;;;22.12;27.09;100969.53;4240177;27;20058;-58
2023/11/26 22:29:38;;;;;;;5.65;2.22;;;;;;;22.10;27.27;100968.78;4242476;27;20190;-58
2023/11/26 22:31:40;;;;;;;5.63;2.00;;;;;;;22.11;27.20;100965.97;4227908;28;20542;-58
2023/11/26 22:33:43;;;;;;;5.22;1.95;;;;;;;22.12;27.03;100967.69;4236338;27;20047;-58
2023/11/26 22:35:44;;;;;;;5.63;2.20;;;;;;;22.13;27.29;100968.56;4247382;27;20063;-58
2023/11/26 22:37:46;;;;;;;4.50;1.98;;;;;;;22.15;27.20;100967.44;4241349;27;20547;-58
2023/11/26 22:39:48;;;;;;;5.72;2.08;;;;;;;22.15;26.88;100962.09;4240939;27;20059;-58
2023/11/26 22:41:50;;;;;;;4.90;2.00;;;;;;;22.16;27.44;100969.16;4247196;27;20420;-58
2023/11/26 22:43:53;;;;;;;4.97;2.00;;;;;;;22.15;26.96;100959.41;4235058;27;20072;-58
2023/11/26 22:45:54;;;;;;;5.20;1.90;;;;;;;22.15;27.06;100953.19;4247431;27;20504;-58
2023/11/26 22:47:56;;;;;;;3.80;1.90;;;;;;;22.14;27.45;100952.34;4243085;27;20043;-59
2023/11/26 22:49:58;;;;;;;4.32;1.80;;;;;;;22.10;27.35;100950.03;4238457;27;20046;-59
2023/11/26 22:51:59;;;;;;;4.65;1.92;;;;;;;22.12;27.29;100953.44;4230556;28;20116;-59
2023/11/26 22:54:02;;;;;;;4.97;1.80;;;;;;;22.12;27.01;100945.41;4242308;27;20526;-59
2023/11/26 22:56:04;;;;;;;4.82;2.00;;;;;;;22.13;27.17;100944.44;4230316;28;20071;-58
2023/11/26 22:58:07;;;;;;;4.45;1.88;;;;;;;22.15;27.56;100945.16;4233027;27;20558;-58
2023/11/26 23:00:19;;;;;;;4.22;1.88;;;;;;;22.20;27.08;100939.41;4240070;27;20039;-58
2023/11/26 23:02:21;;;;;;;4.63;1.85;;;;;;;22.20;27.11;100944.78;4229963;28;20044;-59
2023/11/26 23:04:23;;;;;;;;;;;;;;;22.19;27.48;100949.31;4242392;27;20488;-58
2023/11/26 23:06:24;;;;;;;4.70;1.88;;;;;;;22.17;27.43;100948.56;4230521;28;19920;-59
2023/11/26 23:08:29;;;;;;;4.75;1.92;;;;;;;22.19;26.96;100943.94;4232901;27;20050;-58
2023/11/26 23:10:30;;;;;;;5.07;1.63;;;;;;;22.17;27.34;100935.16;4239728;27;20035;-57
2023/11/26 23:12:32;;;;;;;5.03;1.80;;;;;;;22.14;27.12;100933.59;4230302;28;20145;-58
2023/11/26 23:14:36;;;;;;;3.70;1.70;;;;;;;22.14;27.45;100930.91;4241079;27;20055;-58
2023/11/26 23:16:37;;;;;;;;;;;;;;;22.13;27.34;100920.34;4231809;27;20047;-58
2023/11/26 23:18:39;;;;;;;4.90;2.03;;;;;;;22.13;27.35;100925.69;4231378;27;19923;-58
2023/11/26 23:20:41;;;;;;;4.38;1.80;;;;;;;22.17;27.57;100924.47;4241193;27;20104;-58
2023/11/26 23:22:42;;;;;;;4.03;1.73;;;;;;;22.18;27.09;100923.47;4229869;28;20120;-59
2023/11/26 23:24:44;;;;;;;5.28;1.85;;;;;;;22.16;27.16;100901.31;4239101;27;20047;-57
2023/11/26 23:26:46;;;;;;;;;;;;;;;22.17;27.36;100911.91;4233316;27;20514;-59
2023/11/26 23:28:48;;;;;;;4.07;1.80;;;;;;;22.14;27.03;100903.25;4231322;27;19919;-58
2023/11/26 23:30:50;;;;;;;3.95;1.80;;;;;;;22.13;26.90;100899.75;4241372;27;20042;-58
2023/11/26 23:32:52;;;;;;;4.13;1.75;;;;;;;22.12;27.21;100907.91;4229688;28;20108;-58
2023/11/26 23:34:54;;;;;;;5.03;1.75;;;;;;;22.11;27.10;100900.84;4237634;27;20043;-58
2023/11/26 23:36:56;;;;;;;4.40;1.65;;;;;;;22.10;27.36;100899.13;4234860;28;20043;-58
2023/11/26 23:38:57;;;;;;;4.78;2.00;;;;;;;22.11;27.21;100895.50;4231227;28;20048;-58
2023/11/26 23:40:59;;;;;;;4.60;1.98;;;;;;;22.12;27.16;100876.59;4241575;27;20074;-58
2023/11/26 23:43:01;;;;;;;4.38;1.90;;;;;;;22.14;27.26;100873.78;4230029;28;20065;-59
2023/11/26 23:45:04;;;;;;;;;;;;;;;22.16;27.14;100866.50;4236439;28;20053;-58
2023/11/26 23:47:05;;;;;;;3.90;1.70;;;;;;;22.14;27.46;100860.41;4246255;28;19926;-59
2023/11/26 23:49:07;;;;;;;4.65;2.00;;;;;;;22.16;27.32;100858.47;4246052;28;20070;-58
2023/11/26 23:51:10;;;;;;;5.53;2.08;;;;;;;22.15;27.21;100854.06;4234702;28;20486;-58
2023/11/26 23:53:12;;;;;;;3.83;1.73;;;;;;;22.13;27.11;100858.72;4247097;28;20484;-58
2023/11/26 23:55:14;;;;;;;3.80;1.70;;;;;;;22.12;27.07;100859.69;4228073;28;20048;-59
2023/11/26 23:57:16;;;;;;;5.38;1.80;;;;;;;22.08;27.25;100851.06;4246708;28;20051;-59
2023/11/26 23:59:17;;;;;;;4.47;1.92;;;;;;;22.07;27.09;100840.50;4246760;28;20051;-61
